createdAt,value
2022-09-28T00:00:04.314Z,94.65
2022-09-28T00:01:10.486Z,94.76
2022-09-28T00:02:07.218Z,94.47
2022-09-28T00:03:03.945Z,94.03
2022-09-28T00:04:01.511Z,93.72
2022-09-28T00:04:58.151Z,94.01
2022-09-28T00:06:01.253Z,93.84
2022-09-28T00:06:57.800Z,94.14
2022-09-28T00:07:54.658Z,93.91
2022-09-28T00:08:51.558Z,93.70
2022-09-28T00:09:48.109Z,93.67
2022-09-28T00:10:46.364Z,93.44
2022-09-28T00:11:43.880Z,92.96
2022-09-28T00:12:40.470Z,92.58
2022-09-28T00:13:37.040Z,91.97
2022-09-28T00:14:34.116Z,92.54
2022-09-28T00:15:30.697Z,93.37
2022-09-28T00:16:30.105Z,93.41
2022-09-28T00:17:26.689Z,93.28
2022-09-28T00:18:23.334Z,93.01
2022-09-28T00:19:19.917Z,93.21
2022-09-28T00:20:18.046Z,93.21
2022-09-28T00:21:17.949Z,93.01
2022-09-28T00:22:14.553Z,92.76
2022-09-28T00:23:11.204Z,92.86
2022-09-28T00:24:12.597Z,92.53
2022-09-28T00:25:09.650Z,92.49
2022-09-28T00:26:06.408Z,93.02
2022-09-28T00:27:04.056Z,93.66
2022-09-28T00:28:00.846Z,93.98
2022-09-28T00:29:00.235Z,94.58
2022-09-28T00:29:57.103Z,94.77
2022-09-28T00:30:56.598Z,94.94
2022-09-28T00:31:59.947Z,94.68
2022-09-28T00:32:56.647Z,94.39
2022-09-28T00:33:56.835Z,93.45
2022-09-28T00:34:53.478Z,93.54
2022-09-28T00:35:58.991Z,93.96
2022-09-28T00:36:55.550Z,93.93
2022-09-28T00:37:52.205Z,94.07
2022-09-28T00:38:49.004Z,93.95
2022-09-28T00:39:46.618Z,94.69
2022-09-28T00:40:43.184Z,94.35
2022-09-28T00:41:40.268Z,94.61
2022-09-28T00:42:36.868Z,95.18
2022-09-28T00:43:33.643Z,94.83
2022-09-28T00:44:41.377Z,95.06
2022-09-28T00:45:38.083Z,95.44
2022-09-28T00:46:36.418Z,95.83
2022-09-28T00:47:53.073Z,96.25
2022-09-28T00:49:07.540Z,96.95
2022-09-28T00:50:20.546Z,96.86
2022-09-28T00:51:17.488Z,97.43
2022-09-28T00:52:20.035Z,97.27
2022-09-28T00:53:26.513Z,97.88
2022-09-28T00:54:23.259Z,97.95
2022-09-28T00:55:26.703Z,97.87
2022-09-28T00:56:26.944Z,98.23
2022-09-28T00:57:24.102Z,98.61
2022-09-28T00:58:27.522Z,98.69
2022-09-28T00:59:24.872Z,98.51
2022-09-28T01:00:22.058Z,98.77
2022-09-28T01:01:18.941Z,98.65
2022-09-28T01:02:15.717Z,98.70
2022-09-28T01:03:14.302Z,98.65
2022-09-28T01:04:11.129Z,98.50
2022-09-28T01:05:10.478Z,98.67
2022-09-28T01:06:08.736Z,98.55
2022-09-28T01:07:08.923Z,98.37
2022-09-28T01:08:06.309Z,98.37
2022-09-28T01:09:06.588Z,98.37
2022-09-28T01:10:04.146Z,97.63
2022-09-28T01:11:01.245Z,96.36
2022-09-28T01:11:57.799Z,95.51
2022-09-28T01:12:55.668Z,93.72
2022-09-28T01:13:55.303Z,91.89
2022-09-28T01:14:52.770Z,89.72
2022-09-28T01:15:58.492Z,89.59
2022-09-28T01:17:25.001Z,87.28
2022-09-28T01:18:59.048Z,88.03
2022-09-28T01:19:58.338Z,86.94
2022-09-28T01:21:03.969Z,85.79
2022-09-28T01:22:48.604Z,84.67
2022-09-28T01:23:48.255Z,82.88
2022-09-28T01:25:01.858Z,82.95
2022-09-28T01:26:20.306Z,83.27
2022-09-28T01:27:39.549Z,83.91
2022-09-28T01:28:36.572Z,83.42
2022-09-28T01:29:38.913Z,83.37
2022-09-28T01:31:00.647Z,85.67
2022-09-28T01:32:21.837Z,85.77
2022-09-28T01:33:26.881Z,84.25
2022-09-28T01:34:31.441Z,83.03
2022-09-28T01:35:44.993Z,84.32
2022-09-28T01:36:55.014Z,83.63
2022-09-28T01:38:01.739Z,82.42
2022-09-28T01:39:12.893Z,81.17
2022-09-28T01:40:11.955Z,81.20
2022-09-28T01:41:09.955Z,83.46
2022-09-28T01:42:14.490Z,84.14
2022-09-28T01:43:36.356Z,84.41
2022-09-28T01:44:39.916Z,82.01
2022-09-28T01:45:47.110Z,81.56
2022-09-28T01:46:48.450Z,82.25
2022-09-28T01:47:47.039Z,82.42
2022-09-28T01:48:57.305Z,83.07
2022-09-28T01:50:01.505Z,82.70
2022-09-28T01:51:02.869Z,81.50
2022-09-28T01:52:29.492Z,82.23
2022-09-28T01:53:35.808Z,82.19
2022-09-28T01:54:42.376Z,82.83
2022-09-28T01:55:46.331Z,85.40
2022-09-28T01:56:52.814Z,85.21
2022-09-28T01:57:56.019Z,84.30
2022-09-28T01:59:06.513Z,83.69
2022-09-28T02:00:10.634Z,83.42
2022-09-28T02:01:14.214Z,82.90
2022-09-28T02:02:22.677Z,82.55
2022-09-28T02:03:24.024Z,82.24
2022-09-28T02:04:43.865Z,83.12
2022-09-28T02:05:47.027Z,82.97
2022-09-28T02:06:50.499Z,83.05
2022-09-28T02:08:15.963Z,83.76
2022-09-28T02:09:21.556Z,84.27
2022-09-28T02:10:24.741Z,85.38
2022-09-28T02:11:22.713Z,84.15
2022-09-28T02:12:25.740Z,82.79
2022-09-28T02:13:28.332Z,85.15
2022-09-28T02:14:26.456Z,83.98
2022-09-28T02:15:22.969Z,81.61
2022-09-28T02:16:42.488Z,80.75
2022-09-28T02:17:39.438Z,81.70
2022-09-28T02:18:36.530Z,81.27
2022-09-28T02:19:33.733Z,82.21
2022-09-28T02:20:34.443Z,82.66
2022-09-28T02:21:54.067Z,83.97
2022-09-28T02:22:54.252Z,84.43
2022-09-28T02:23:57.429Z,86.85
2022-09-28T02:25:09.930Z,88.53
2022-09-28T02:26:10.689Z,89.77
2022-09-28T02:27:14.769Z,90.55
2022-09-28T02:28:13.519Z,90.17
2022-09-28T02:29:10.577Z,89.92
2022-09-28T02:30:08.120Z,90.03
2022-09-28T02:31:04.885Z,85.44
2022-09-28T02:32:01.716Z,81.71
2022-09-28T02:33:05.547Z,78.99
2022-09-28T02:34:02.194Z,80.24
2022-09-28T02:34:59.448Z,80.71
2022-09-28T02:35:58.407Z,81.47
2022-09-28T02:36:55.049Z,82.11
2022-09-28T02:37:51.757Z,83.33
2022-09-28T02:38:48.681Z,84.91
2022-09-28T02:39:45.291Z,84.14
2022-09-28T02:40:46.086Z,83.65
2022-09-28T02:41:48.802Z,82.97
2022-09-28T02:42:54.947Z,83.46
2022-09-28T02:44:36.271Z,83.89
2022-09-28T02:45:48.327Z,84.27
2022-09-28T02:46:48.102Z,84.18
2022-09-28T02:48:09.025Z,84.67
2022-09-28T02:49:22.142Z,85.20
2022-09-28T02:50:45.158Z,87.47
2022-09-28T02:52:04.452Z,89.30
2022-09-28T02:53:03.829Z,89.82
2022-09-28T02:54:21.643Z,90.14
2022-09-28T02:55:35.340Z,90.11
2022-09-28T02:57:13.281Z,91.16
2022-09-28T02:58:24.220Z,92.18
2022-09-28T02:59:33.679Z,92.99
2022-09-28T03:00:36.367Z,92.82
2022-09-28T03:01:50.712Z,91.50
2022-09-28T03:03:09.403Z,87.37
2022-09-28T03:04:11.175Z,85.23
2022-09-28T03:05:22.767Z,84.61
2022-09-28T03:06:45.861Z,83.00
2022-09-28T03:08:08.737Z,83.00
2022-09-28T03:09:23.207Z,82.18
2022-09-28T03:10:30.041Z,82.21
2022-09-28T03:11:54.046Z,82.10
2022-09-28T03:12:53.657Z,82.21
2022-09-28T03:13:51.840Z,81.70
2022-09-28T03:14:48.430Z,81.19
2022-09-28T03:15:48.652Z,83.23
2022-09-28T03:16:46.205Z,86.38
2022-09-28T03:17:42.842Z,87.55
2022-09-28T03:18:39.821Z,88.43
2022-09-28T03:19:37.142Z,89.65
2022-09-28T03:20:34.309Z,90.04
2022-09-28T03:21:30.853Z,90.37
2022-09-28T03:22:27.406Z,90.94
2022-09-28T03:23:25.342Z,91.78
2022-09-28T03:24:22.239Z,92.18
2022-09-28T03:25:18.845Z,92.33
2022-09-28T03:26:16.934Z,92.72
2022-09-28T03:27:13.532Z,93.29
2022-09-28T03:28:10.103Z,93.46
2022-09-28T03:29:06.692Z,93.89
2022-09-28T03:30:03.556Z,93.68
2022-09-28T03:31:00.141Z,92.77
2022-09-28T03:31:56.793Z,92.42
2022-09-28T03:33:00.865Z,90.97
2022-09-28T03:33:57.416Z,90.24
2022-09-28T03:34:54.400Z,89.38
2022-09-28T03:35:51.158Z,87.21
2022-09-28T03:36:47.718Z,86.39
2022-09-28T03:37:44.339Z,87.07
2022-09-28T03:38:41.257Z,88.44
2022-09-28T03:39:37.792Z,88.68
2022-09-28T03:40:34.482Z,89.40
2022-09-28T03:41:31.120Z,90.32
2022-09-28T03:42:27.768Z,91.22
2022-09-28T03:43:25.376Z,91.44
2022-09-28T03:44:21.911Z,92.16
2022-09-28T03:45:18.476Z,92.27
2022-09-28T03:46:15.166Z,92.67
2022-09-28T03:47:11.914Z,93.25
2022-09-28T03:48:08.595Z,93.34
2022-09-28T03:49:05.318Z,93.29
2022-09-28T03:50:02.239Z,92.98
2022-09-28T03:51:01.310Z,93.46
2022-09-28T03:51:57.957Z,93.99
2022-09-28T03:52:54.574Z,94.19
2022-09-28T03:53:51.131Z,93.93
2022-09-28T03:54:49.377Z,93.59
2022-09-28T03:55:46.122Z,92.87
2022-09-28T03:56:42.669Z,92.79
2022-09-28T03:57:39.221Z,93.38
2022-09-28T03:58:35.858Z,94.14
2022-09-28T03:59:32.434Z,94.24
2022-09-28T04:00:28.998Z,94.54
2022-09-28T04:01:25.666Z,94.59
2022-09-28T04:02:22.498Z,94.46
2022-09-28T04:03:19.079Z,94.24
2022-09-28T04:04:16.137Z,94.29
2022-09-28T04:05:12.705Z,94.36
2022-09-28T04:06:09.500Z,94.10
2022-09-28T04:07:06.029Z,94.11
2022-09-28T04:08:02.756Z,93.94
2022-09-28T04:08:59.962Z,94.17
2022-09-28T04:09:56.601Z,94.13
2022-09-28T04:10:56.666Z,94.26
2022-09-28T04:12:03.967Z,94.31
2022-09-28T04:13:00.966Z,94.86
2022-09-28T04:13:57.609Z,94.53
2022-09-28T04:14:54.145Z,94.21
2022-09-28T04:15:58.311Z,93.59
2022-09-28T04:16:55.162Z,93.37
2022-09-28T04:17:52.227Z,93.21
2022-09-28T04:18:48.916Z,93.31
2022-09-28T04:19:45.493Z,93.67
2022-09-28T04:20:45.403Z,94.14
2022-09-28T04:21:42.039Z,94.22
2022-09-28T04:22:38.612Z,94.50
2022-09-28T04:23:36.915Z,94.79
2022-09-28T04:24:33.785Z,94.83
2022-09-28T04:25:30.401Z,94.77
2022-09-28T04:26:28.422Z,94.42
2022-09-28T04:27:43.264Z,94.49
2022-09-28T04:29:00.658Z,94.16
2022-09-28T04:29:59.491Z,93.60
2022-09-28T04:30:56.054Z,93.57
2022-09-28T04:31:54.979Z,93.84
2022-09-28T04:32:51.703Z,93.79
2022-09-28T04:33:48.628Z,93.83
2022-09-28T04:34:45.235Z,93.87
2022-09-28T04:35:41.874Z,94.68
2022-09-28T04:36:38.499Z,94.82
2022-09-28T04:37:35.092Z,95.01
2022-09-28T04:38:51.937Z,95.34
2022-09-28T04:39:49.051Z,94.73
2022-09-28T04:40:48.728Z,94.35
2022-09-28T04:41:47.981Z,94.44
2022-09-28T04:42:44.655Z,94.56
2022-09-28T04:43:41.281Z,94.46
2022-09-28T04:44:37.841Z,94.37
2022-09-28T04:45:34.470Z,94.10
2022-09-28T04:46:31.452Z,93.92
2022-09-28T04:47:29.711Z,93.64
2022-09-28T04:48:27.648Z,93.90
2022-09-28T04:49:24.748Z,94.06
2022-09-28T04:50:21.453Z,94.18
2022-09-28T04:51:18.067Z,94.00
2022-09-28T04:52:18.346Z,93.69
2022-09-28T04:53:15.271Z,93.60
2022-09-28T04:54:11.839Z,93.58
2022-09-28T04:55:12.017Z,93.62
2022-09-28T04:56:12.652Z,93.46
2022-09-28T04:57:09.312Z,92.45
2022-09-28T04:58:05.874Z,91.72
2022-09-28T04:59:02.960Z,90.28
2022-09-28T04:59:59.517Z,89.20
2022-09-28T05:01:01.608Z,88.95
2022-09-28T05:01:58.329Z,88.39
2022-09-28T05:02:55.469Z,88.77
2022-09-28T05:03:52.089Z,88.65
2022-09-28T05:04:48.683Z,88.94
2022-09-28T05:05:45.725Z,89.76
2022-09-28T05:06:42.460Z,89.68
2022-09-28T05:07:39.141Z,89.63
2022-09-28T05:08:36.203Z,90.27
2022-09-28T05:09:36.284Z,90.26
2022-09-28T05:10:34.901Z,89.79
2022-09-28T05:11:31.531Z,89.66
2022-09-28T05:12:28.101Z,88.55
2022-09-28T05:13:24.723Z,86.84
2022-09-28T05:14:24.537Z,86.21
2022-09-28T05:15:21.093Z,84.14
2022-09-28T05:16:18.099Z,83.27
2022-09-28T05:17:14.849Z,83.45
2022-09-28T05:18:11.403Z,84.84
2022-09-28T05:19:08.027Z,86.88
2022-09-28T05:20:05.275Z,88.68
2022-09-28T05:21:01.993Z,89.16
2022-09-28T05:21:58.535Z,87.96
2022-09-28T05:22:55.209Z,86.59
2022-09-28T05:23:52.060Z,86.45
2022-09-28T05:24:48.823Z,86.92
2022-09-28T05:25:45.941Z,88.03
2022-09-28T05:26:42.500Z,88.51
2022-09-28T05:27:39.053Z,88.75
2022-09-28T05:28:35.693Z,88.36
2022-09-28T05:29:32.738Z,89.01
2022-09-28T05:30:29.471Z,89.83
2022-09-28T05:31:27.363Z,89.93
2022-09-28T05:32:24.160Z,89.96
2022-09-28T05:33:21.002Z,89.87
2022-09-28T05:34:17.545Z,90.08
2022-09-28T05:35:17.108Z,90.51
2022-09-28T05:36:13.664Z,91.33
2022-09-28T05:37:10.235Z,91.53
2022-09-28T05:38:06.818Z,90.94
2022-09-28T05:39:04.123Z,90.50
2022-09-28T05:40:00.883Z,90.50
2022-09-28T05:40:57.867Z,90.14
2022-09-28T05:41:55.841Z,89.57
2022-09-28T05:42:52.567Z,88.95
2022-09-28T05:43:51.544Z,87.55
2022-09-28T05:44:48.332Z,87.16
2022-09-28T05:45:44.948Z,87.70
2022-09-28T05:46:41.578Z,86.88
2022-09-28T05:47:43.186Z,87.54
2022-09-28T05:48:39.832Z,87.64
2022-09-28T05:49:36.458Z,87.50
2022-09-28T05:50:33.071Z,87.06
2022-09-28T05:51:29.634Z,87.11
2022-09-28T05:52:26.265Z,86.54
2022-09-28T05:53:22.845Z,86.37
2022-09-28T05:54:19.582Z,86.62
2022-09-28T05:55:16.251Z,86.62
2022-09-28T05:56:13.146Z,85.88
2022-09-28T05:57:10.080Z,85.78
2022-09-28T05:58:07.704Z,85.27
2022-09-28T05:59:06.207Z,85.37
2022-09-28T06:00:09.142Z,86.17
2022-09-28T06:01:05.821Z,86.08
2022-09-28T06:02:03.560Z,85.12
2022-09-28T06:03:11.836Z,85.13
2022-09-28T06:04:09.046Z,84.51
2022-09-28T06:05:05.984Z,84.43
2022-09-28T06:06:02.804Z,84.58
2022-09-28T06:06:59.716Z,83.47
2022-09-28T06:07:57.864Z,82.50
2022-09-28T06:08:54.467Z,81.01
2022-09-28T06:09:51.017Z,81.33
2022-09-28T06:10:47.871Z,82.02
2022-09-28T06:11:44.492Z,80.87
2022-09-28T06:12:41.379Z,80.37
2022-09-28T06:13:39.867Z,80.84
2022-09-28T06:14:36.526Z,82.00
2022-09-28T06:15:35.490Z,82.34
2022-09-28T06:16:32.203Z,82.57
2022-09-28T06:17:28.797Z,83.25
2022-09-28T06:18:25.401Z,84.55
2022-09-28T06:19:22.063Z,84.67
2022-09-28T06:20:18.682Z,85.15
2022-09-28T06:21:15.409Z,86.09
2022-09-28T06:22:12.031Z,86.59
2022-09-28T06:23:09.939Z,86.95
2022-09-28T06:24:06.716Z,87.60
2022-09-28T06:25:04.230Z,87.49
2022-09-28T06:26:00.841Z,87.92
2022-09-28T06:26:57.440Z,87.80
2022-09-28T06:27:59.135Z,87.46
2022-09-28T06:28:55.713Z,88.19
2022-09-28T06:29:52.886Z,89.14
2022-09-28T06:30:49.639Z,90.04
2022-09-28T06:31:47.301Z,90.03
2022-09-28T06:32:43.860Z,88.85
2022-09-28T06:33:42.057Z,88.77
2022-09-28T06:34:38.623Z,88.33
2022-09-28T06:35:35.307Z,88.01
2022-09-28T06:36:32.051Z,87.42
2022-09-28T06:37:28.985Z,87.95
2022-09-28T06:38:25.570Z,88.84
2022-09-28T06:39:22.184Z,89.28
2022-09-28T06:40:19.418Z,88.62
2022-09-28T06:41:16.066Z,88.80
2022-09-28T06:42:12.681Z,89.04
2022-09-28T06:43:15.340Z,88.53
2022-09-28T06:44:12.082Z,87.47
2022-09-28T06:45:09.002Z,86.33
2022-09-28T06:46:07.297Z,86.17
2022-09-28T06:47:03.971Z,86.56
2022-09-28T06:48:01.955Z,86.26
2022-09-28T06:48:58.655Z,84.50
2022-09-28T06:49:55.401Z,83.78
2022-09-28T06:50:52.054Z,81.12
2022-09-28T06:51:48.904Z,80.84
2022-09-28T06:52:45.545Z,79.98
2022-09-28T06:53:42.630Z,81.89
2022-09-28T06:54:39.210Z,80.16
2022-09-28T06:55:39.035Z,76.73
2022-09-28T06:56:37.116Z,75.81
2022-09-28T06:57:33.749Z,76.87
2022-09-28T06:58:31.576Z,74.57
2022-09-28T06:59:29.935Z,75.82
2022-09-28T07:00:28.145Z,76.52
2022-09-28T07:01:25.819Z,74.20
2022-09-28T07:02:23.157Z,73.32
2022-09-28T07:03:22.398Z,73.87
2022-09-28T07:04:19.001Z,73.89
2022-09-28T07:05:15.725Z,75.39
2022-09-28T07:06:12.888Z,76.13
2022-09-28T07:07:10.731Z,76.58
2022-09-28T07:08:07.886Z,76.29
2022-09-28T07:09:26.969Z,75.30
2022-09-28T07:10:30.382Z,77.15
2022-09-28T07:11:27.508Z,76.54
2022-09-28T07:12:26.409Z,75.26
2022-09-28T07:13:49.431Z,75.22
2022-09-28T07:14:48.279Z,76.93
2022-09-28T07:15:45.871Z,74.29
2022-09-28T07:17:08.999Z,78.12
2022-09-28T07:18:03.238Z,76.56
2022-09-28T07:19:00.428Z,74.94
2022-09-28T07:20:02.917Z,76.15
2022-09-28T07:21:08.169Z,76.21
2022-09-28T07:22:05.941Z,76.38
2022-09-28T07:23:16.771Z,77.30
2022-09-28T07:24:14.483Z,76.68
2022-09-28T07:25:11.176Z,75.87
2022-09-28T07:26:09.127Z,75.73
2022-09-28T07:27:05.913Z,76.19
2022-09-28T07:28:03.962Z,76.42
2022-09-28T07:29:00.644Z,77.61
2022-09-28T07:29:58.866Z,77.23
2022-09-28T07:30:57.691Z,76.74
2022-09-28T07:31:54.586Z,76.71
2022-09-28T07:32:51.738Z,76.71
2022-09-28T07:33:51.236Z,78.10
2022-09-28T07:34:48.792Z,78.44
2022-09-28T07:35:55.755Z,77.93
2022-09-28T07:36:58.898Z,78.24
2022-09-28T07:38:03.840Z,78.78
2022-09-28T07:39:01.257Z,77.40
2022-09-28T07:40:16.554Z,77.37
2022-09-28T07:41:14.303Z,76.85
2022-09-28T07:42:10.952Z,76.25
2022-09-28T07:43:07.613Z,76.73
2022-09-28T07:44:07.562Z,76.66
2022-09-28T07:45:04.660Z,77.47
2022-09-28T07:46:01.512Z,76.87
2022-09-28T07:46:58.186Z,77.66
2022-09-28T07:47:56.074Z,75.90
2022-09-28T07:48:52.856Z,76.31
2022-09-28T07:49:51.990Z,75.45
2022-09-28T07:50:50.306Z,74.88
2022-09-28T07:51:46.899Z,75.76
2022-09-28T07:52:44.371Z,75.53
2022-09-28T07:53:41.086Z,73.80
2022-09-28T07:54:39.477Z,73.96
2022-09-28T07:55:36.040Z,73.86
2022-09-28T07:56:34.002Z,73.90
2022-09-28T07:57:33.277Z,71.56
2022-09-28T07:58:30.736Z,73.45
2022-09-28T07:59:27.330Z,73.46
2022-09-28T08:00:23.959Z,74.29
2022-09-28T08:01:21.645Z,75.07
2022-09-28T08:02:20.053Z,74.86
2022-09-28T08:03:18.683Z,75.71
2022-09-28T08:04:15.674Z,75.79
2022-09-28T08:05:12.492Z,78.87
2022-09-28T08:06:11.293Z,75.46
2022-09-28T08:07:11.598Z,77.43
2022-09-28T08:08:08.598Z,74.86
2022-09-28T08:09:05.325Z,67.73
2022-09-28T08:10:01.909Z,68.67
2022-09-28T08:10:59.018Z,68.58
2022-09-28T08:11:55.904Z,68.59
2022-09-28T08:12:59.182Z,67.58
2022-09-28T08:14:00.301Z,65.32
2022-09-28T08:14:56.944Z,66.11
2022-09-28T08:15:54.605Z,66.82
2022-09-28T08:16:53.365Z,67.01
2022-09-28T08:17:50.545Z,68.24
2022-09-28T08:18:49.405Z,66.18
2022-09-28T08:20:04.512Z,68.05
2022-09-28T08:21:21.894Z,66.98
2022-09-28T08:22:19.894Z,67.54
2022-09-28T08:23:17.131Z,68.89
2022-09-28T08:24:15.501Z,69.15
2022-09-28T08:25:12.212Z,66.60
2022-09-28T08:26:13.273Z,66.51
2022-09-28T08:27:12.938Z,64.30
2022-09-28T08:28:09.477Z,66.43
2022-09-28T08:29:06.480Z,66.79
2022-09-28T08:30:03.466Z,63.89
2022-09-28T08:31:01.766Z,64.99
2022-09-28T08:32:02.044Z,65.16
2022-09-28T08:32:58.647Z,64.50
2022-09-28T08:33:56.816Z,63.05
2022-09-28T08:34:55.882Z,62.89
2022-09-28T08:36:01.379Z,61.36
2022-09-28T08:36:59.137Z,62.71
2022-09-28T08:37:55.842Z,61.40
2022-09-28T08:38:52.670Z,60.71
2022-09-28T08:39:49.622Z,62.81
2022-09-28T08:40:55.755Z,65.00
2022-09-28T08:42:00.731Z,64.82
2022-09-28T08:43:07.055Z,63.70
2022-09-28T08:44:17.516Z,63.22
2022-09-28T08:45:22.807Z,61.60
2022-09-28T08:46:26.993Z,62.85
2022-09-28T08:47:45.637Z,61.93
2022-09-28T08:49:24.126Z,63.89
2022-09-28T08:50:18.934Z,64.74
2022-09-28T08:51:42.297Z,62.79
2022-09-28T08:52:40.290Z,64.64
2022-09-28T08:53:46.115Z,63.67
2022-09-28T08:54:50.361Z,65.85
2022-09-28T08:55:47.023Z,66.69
2022-09-28T08:56:59.403Z,66.13
2022-09-28T08:58:05.147Z,62.56
2022-09-28T08:59:05.479Z,64.08
2022-09-28T09:00:08.357Z,64.20
2022-09-28T09:01:16.519Z,63.80
2022-09-28T09:02:20.057Z,64.00
2022-09-28T09:03:22.506Z,62.95
2022-09-28T09:04:19.468Z,62.69
2022-09-28T09:05:20.019Z,63.32
2022-09-28T09:06:45.686Z,64.87
2022-09-28T09:08:08.991Z,62.05
2022-09-28T09:09:47.184Z,63.17
2022-09-28T09:11:06.531Z,62.66
2022-09-28T09:12:45.944Z,62.49
2022-09-28T09:14:08.993Z,64.20
2022-09-28T09:15:28.512Z,62.74
2022-09-28T09:17:00.307Z,62.76
2022-09-28T09:18:00.641Z,61.46
2022-09-28T09:19:17.385Z,59.92
2022-09-28T09:20:20.508Z,61.20
2022-09-28T09:21:43.254Z,61.04
2022-09-28T09:22:45.262Z,62.99
2022-09-28T09:24:15.837Z,62.70
2022-09-28T09:25:29.965Z,64.45
2022-09-28T09:26:38.645Z,65.18
2022-09-28T09:27:56.383Z,65.15
2022-09-28T09:29:44.791Z,65.03
2022-09-28T09:31:18.572Z,62.99
2022-09-28T09:33:02.593Z,64.91
2022-09-28T09:34:28.613Z,64.94
2022-09-28T09:36:11.830Z,63.32
2022-09-28T09:37:17.900Z,62.91
2022-09-28T09:38:51.117Z,65.25
2022-09-28T09:40:09.231Z,64.54
2022-09-28T09:41:15.503Z,64.28
2022-09-28T09:42:14.847Z,63.32
2022-09-28T09:43:29.483Z,63.19
2022-09-28T09:45:06.477Z,62.37
2022-09-28T09:46:18.292Z,61.94
2022-09-28T09:47:23.495Z,59.67
2022-09-28T09:48:27.534Z,59.39
2022-09-28T09:49:45.261Z,61.08
2022-09-28T09:50:50.503Z,59.88
2022-09-28T09:52:03.082Z,61.49
2022-09-28T09:53:36.156Z,62.72
2022-09-28T09:54:53.286Z,61.26
2022-09-28T09:55:57.337Z,63.86
2022-09-28T09:57:27.071Z,64.03
2022-09-28T09:58:34.330Z,60.26
2022-09-28T09:59:35.089Z,59.55
2022-09-28T10:00:32.359Z,59.09
2022-09-28T10:01:39.088Z,55.39
2022-09-28T10:02:36.050Z,55.52
2022-09-28T10:03:36.731Z,54.26
2022-09-28T10:04:40.864Z,55.05
2022-09-28T10:05:39.225Z,54.08
2022-09-28T10:06:39.364Z,55.87
2022-09-28T10:07:46.695Z,57.09
2022-09-28T10:08:50.300Z,58.17
2022-09-28T10:09:48.993Z,57.85
2022-09-28T10:11:13.275Z,56.48
2022-09-28T10:12:11.940Z,54.30
2022-09-28T10:13:09.418Z,57.24
2022-09-28T10:14:08.289Z,55.33
2022-09-28T10:15:07.675Z,55.38
2022-09-28T10:16:05.962Z,56.25
2022-09-28T10:17:03.969Z,56.35
2022-09-28T10:18:06.872Z,55.36
2022-09-28T10:19:03.468Z,53.33
2022-09-28T10:20:01.127Z,54.54
2022-09-28T10:20:57.998Z,56.16
2022-09-28T10:21:55.043Z,56.33
2022-09-28T10:22:52.412Z,53.47
2022-09-28T10:23:59.594Z,55.99
2022-09-28T10:24:58.390Z,54.92
2022-09-28T10:26:03.157Z,55.35
2022-09-28T10:27:14.274Z,55.41
2022-09-28T10:28:19.606Z,56.60
2022-09-28T10:29:22.263Z,54.99
2022-09-28T10:30:25.165Z,56.05
2022-09-28T10:31:39.058Z,57.89
2022-09-28T10:32:44.857Z,54.83
2022-09-28T10:33:42.421Z,54.53
2022-09-28T10:34:39.122Z,51.33
2022-09-28T10:35:47.835Z,51.21
2022-09-28T10:36:55.238Z,52.51
2022-09-28T10:37:59.911Z,52.64
2022-09-28T10:38:57.977Z,52.32
2022-09-28T10:39:56.354Z,51.30
2022-09-28T10:41:00.881Z,51.38
2022-09-28T10:42:00.231Z,51.69
2022-09-28T10:43:01.592Z,52.42
2022-09-28T10:44:11.101Z,53.34
2022-09-28T10:45:22.323Z,51.96
2022-09-28T10:46:23.624Z,50.01
2022-09-28T10:47:24.055Z,51.72
2022-09-28T10:48:22.359Z,52.13
2022-09-28T10:49:22.214Z,51.02
2022-09-28T10:50:25.533Z,52.60
2022-09-28T10:51:47.279Z,55.30
2022-09-28T10:52:46.281Z,52.67
2022-09-28T10:53:57.127Z,53.52
2022-09-28T10:54:53.961Z,50.74
2022-09-28T10:56:08.853Z,51.03
2022-09-28T10:57:28.065Z,54.93
2022-09-28T10:58:42.193Z,51.20
2022-09-28T10:59:41.861Z,52.05
2022-09-28T11:00:43.600Z,48.69
2022-09-28T11:01:40.337Z,51.30
2022-09-28T11:02:40.281Z,51.08
2022-09-28T11:04:01.733Z,52.56
2022-09-28T11:05:01.653Z,53.36
2022-09-28T11:06:04.261Z,50.58
2022-09-28T11:07:02.010Z,51.22
2022-09-28T11:08:02.776Z,50.30
2022-09-28T11:09:06.163Z,51.17
2022-09-28T11:10:04.144Z,50.12
2022-09-28T11:11:06.969Z,49.64
2022-09-28T11:12:06.528Z,47.76
2022-09-28T11:13:03.273Z,50.62
2022-09-28T11:14:01.381Z,49.95
2022-09-28T11:15:04.250Z,50.11
2022-09-28T11:16:01.047Z,49.97
2022-09-28T11:17:27.905Z,48.54
2022-09-28T11:18:32.486Z,48.63
2022-09-28T11:19:31.985Z,50.72
2022-09-28T11:20:29.264Z,50.55
2022-09-28T11:21:32.564Z,49.12
2022-09-28T11:22:41.768Z,49.49
2022-09-28T11:23:38.471Z,49.39
2022-09-28T11:24:35.083Z,49.73
2022-09-28T11:25:31.776Z,49.46
2022-09-28T11:26:37.097Z,49.61
2022-09-28T11:27:33.777Z,50.37
2022-09-28T11:28:37.542Z,50.39
2022-09-28T11:29:44.298Z,51.84
2022-09-28T11:30:52.885Z,50.56
2022-09-28T11:31:49.811Z,51.56
2022-09-28T11:32:47.374Z,50.31
2022-09-28T11:33:47.543Z,52.16
2022-09-28T11:34:59.179Z,50.00
2022-09-28T11:36:09.453Z,52.18
2022-09-28T11:37:36.721Z,52.40
2022-09-28T11:38:40.882Z,53.23
2022-09-28T11:39:48.678Z,52.65
2022-09-28T11:41:04.860Z,51.62
2022-09-28T11:42:16.320Z,50.66
2022-09-28T11:43:23.994Z,49.53
2022-09-28T11:44:38.831Z,48.60
2022-09-28T11:45:38.100Z,49.00
2022-09-28T11:47:06.286Z,48.84
2022-09-28T11:48:07.157Z,48.03
2022-09-28T11:49:40.321Z,49.40
2022-09-28T11:50:46.478Z,49.13
2022-09-28T11:51:45.635Z,49.49
2022-09-28T11:52:48.135Z,50.32
2022-09-28T11:53:53.557Z,51.62
2022-09-28T11:55:24.938Z,48.30
2022-09-28T11:56:36.106Z,50.60
2022-09-28T11:57:38.735Z,50.00
2022-09-28T11:58:46.431Z,49.06
2022-09-28T11:59:58.409Z,48.99
2022-09-28T12:01:03.748Z,49.35
2022-09-28T12:02:15.739Z,48.35
2022-09-28T12:03:21.719Z,49.17
2022-09-28T12:04:25.077Z,48.64
2022-09-28T12:05:39.306Z,46.52
2022-09-28T12:06:45.362Z,49.25
2022-09-28T12:07:47.516Z,50.42
2022-09-28T12:08:53.567Z,48.95
2022-09-28T12:10:01.290Z,50.38
2022-09-28T12:11:00.801Z,52.05
2022-09-28T12:12:02.767Z,51.53
2022-09-28T12:13:20.572Z,52.59
2022-09-28T12:14:33.788Z,50.80
2022-09-28T12:16:23.013Z,52.05
2022-09-28T12:17:20.258Z,52.27
2022-09-28T12:18:35.194Z,51.00
2022-09-28T12:19:55.477Z,49.47
2022-09-28T12:21:04.432Z,48.43
2022-09-28T12:22:31.942Z,48.13
2022-09-28T12:23:35.877Z,47.98
2022-09-28T12:24:32.708Z,51.08
2022-09-28T12:25:36.941Z,49.79
2022-09-28T12:26:51.292Z,47.40
2022-09-28T12:28:00.316Z,47.15
2022-09-28T12:29:02.564Z,48.33
2022-09-28T12:30:11.696Z,44.64
2022-09-28T12:31:48.873Z,46.03
2022-09-28T12:33:11.749Z,45.77
2022-09-28T12:34:09.595Z,47.05
2022-09-28T12:35:19.845Z,49.22
2022-09-28T12:36:26.231Z,49.23
2022-09-28T12:37:41.405Z,48.84
2022-09-28T12:39:40.933Z,48.38
2022-09-28T12:40:48.339Z,48.41
2022-09-28T12:42:00.136Z,47.30
2022-09-28T12:43:39.991Z,46.54
2022-09-28T12:44:41.782Z,48.17
2022-09-28T12:46:16.412Z,49.54
2022-09-28T12:47:48.297Z,50.10
2022-09-28T12:51:07.461Z,48.85
2022-09-28T12:52:37.103Z,49.27
2022-09-28T12:54:04.281Z,50.90
2022-09-28T12:55:19.732Z,51.87
2022-09-28T12:56:28.797Z,49.23
2022-09-28T12:57:57.199Z,49.43
2022-09-28T12:59:34.324Z,49.19
2022-09-28T13:00:56.417Z,49.96
2022-09-28T13:02:11.683Z,50.20
2022-09-28T13:03:21.420Z,49.31
2022-09-28T13:04:39.565Z,50.11
2022-09-28T13:05:44.834Z,48.37
2022-09-28T13:06:46.670Z,50.28
2022-09-28T13:08:06.166Z,50.18
2022-09-28T13:09:08.872Z,49.07
2022-09-28T13:10:34.791Z,50.19
2022-09-28T13:11:43.430Z,52.08
2022-09-28T13:12:46.021Z,48.54
2022-09-28T13:14:03.080Z,49.68
2022-09-28T13:15:20.927Z,52.58
2022-09-28T13:16:46.486Z,52.89
2022-09-28T13:18:02.529Z,54.34
2022-09-28T13:19:24.391Z,52.04
2022-09-28T13:20:38.127Z,51.16
2022-09-28T13:21:48.608Z,52.23
2022-09-28T13:23:03.753Z,51.33
2022-09-28T13:24:21.032Z,52.39
2022-09-28T13:25:25.357Z,52.51
2022-09-28T13:26:28.969Z,53.74
2022-09-28T13:27:32.449Z,53.85
2022-09-28T13:28:32.915Z,53.71
2022-09-28T13:29:30.186Z,50.22
2022-09-28T13:30:27.576Z,50.41
2022-09-28T13:31:33.198Z,52.09
2022-09-28T13:32:33.960Z,51.23
2022-09-28T13:33:36.999Z,50.09
2022-09-28T13:34:36.420Z,51.20
2022-09-28T13:35:33.510Z,50.18
2022-09-28T13:36:32.953Z,50.00
2022-09-28T13:37:29.856Z,51.58